Milo, Maine
Current Conditions -  °F | °C
As of 8:53 PM on Sunday 21 Dec 2014 (Local Time) from KMLT Reporting Station
Overcast Overcast  
Wind Chill: 27°   Ceiling: 700
Heat Index: 27°   Visibility: 7mi
Dew Point: 25°   Wind: 0mph
Humidity: 92%   Direction: NA
Pressure: 30.38"   Gusts: NA
Location:  45.25°N, 68.98°W
Report Text: KMLT 220153Z AUTO 00000KT 7SM OVC007 M03/M04 A3038 RMK AO2 SLP298 T10281039
Loading
Personal Weather Stations






























Interactive Weather Map New forecast layout! Learn more

10-Day Weather Forecast

Advertisements
Track Severe Weather on mobile